sensor_id;sensor_type;location;lat;lon;timestamp;P1;durP1;ratioP1;P2;durP2;ratioP2
35897;SDS011;21997;47.118;15.346;2023-08-12T00:00:04;3.77;;;2.43;;
35897;SDS011;21997;47.118;15.346;2023-08-12T00:02:39;3.40;;;2.97;;
35897;SDS011;21997;47.118;15.346;2023-08-12T00:08:45;2.97;;;2.53;;
35897;SDS011;21997;47.118;15.346;2023-08-12T00:11:40;3.03;;;2.70;;
35897;SDS011;21997;47.118;15.346;2023-08-12T00:34:22;3.00;;;2.60;;
35897;SDS011;21997;47.118;15.346;2023-08-12T00:40:27;4.73;;;3.37;;
35897;SDS011;21997;47.118;15.346;2023-08-12T00:46:36;3.07;;;2.80;;
35897;SDS011;21997;47.118;15.346;2023-08-12T00:49:15;3.70;;;3.27;;
35897;SDS011;21997;47.118;15.346;2023-08-12T00:55:42;4.67;;;2.80;;
35897;SDS011;21997;47.118;15.346;2023-08-12T01:08:53;3.87;;;2.70;;
35897;SDS011;21997;47.118;15.346;2023-08-12T01:39:23;3.57;;;3.00;;
35897;SDS011;21997;47.118;15.346;2023-08-12T01:53:03;3.90;;;2.60;;
35897;SDS011;21997;47.118;15.346;2023-08-12T01:56:07;4.30;;;3.07;;
35897;SDS011;21997;47.118;15.346;2023-08-12T02:55:55;4.13;;;3.20;;
35897;SDS011;21997;47.118;15.346;2023-08-12T03:23:10;2.90;;;2.50;;
35897;SDS011;21997;47.118;15.346;2023-08-12T03:29:54;2.77;;;2.57;;
35897;SDS011;21997;47.118;15.346;2023-08-12T03:40:43;3.83;;;3.00;;
35897;SDS011;21997;47.118;15.346;2023-08-12T04:05:13;3.40;;;3.10;;
35897;SDS011;21997;47.118;15.346;2023-08-12T06:56:25;3.53;;;2.80;;
35897;SDS011;21997;47.118;15.346;2023-08-12T06:59:08;3.30;;;2.53;;
35897;SDS011;21997;47.118;15.346;2023-08-12T07:01:43;4.90;;;3.20;;
35897;SDS011;21997;47.118;15.346;2023-08-12T07:07:54;3.57;;;3.27;;
35897;SDS011;21997;47.118;15.346;2023-08-12T07:10:19;4.60;;;3.10;;
35897;SDS011;21997;47.118;15.346;2023-08-12T07:12:45;4.07;;;2.70;;
35897;SDS011;21997;47.118;15.346;2023-08-12T07:15:10;3.53;;;2.40;;
35897;SDS011;21997;47.118;15.346;2023-08-12T07:17:36;3.33;;;3.03;;
35897;SDS011;21997;47.118;15.346;2023-08-12T07:20:01;3.00;;;2.70;;
35897;SDS011;21997;47.118;15.346;2023-08-12T07:22:27;2.87;;;2.53;;
35897;SDS011;21997;47.118;15.346;2023-08-12T07:25:14;5.17;;;2.77;;
35897;SDS011;21997;47.118;15.346;2023-08-12T07:27:53;2.70;;;2.47;;
35897;SDS011;21997;47.118;15.346;2023-08-12T07:30:28;3.83;;;2.23;;
35897;SDS011;21997;47.118;15.346;2023-08-12T07:32:53;3.83;;;2.87;;
35897;SDS011;21997;47.118;15.346;2023-08-12T07:35:19;3.03;;;2.20;;
35897;SDS011;21997;47.118;15.346;2023-08-12T07:37:44;4.10;;;2.57;;
35897;SDS011;21997;47.118;15.346;2023-08-12T07:40:10;3.33;;;2.70;;
35897;SDS011;21997;47.118;15.346;2023-08-12T07:45:50;3.23;;;2.37;;
35897;SDS011;21997;47.118;15.346;2023-08-12T07:58:19;3.60;;;2.37;;
35897;SDS011;21997;47.118;15.346;2023-08-12T08:01:03;3.80;;;2.33;;
35897;SDS011;21997;47.118;15.346;2023-08-12T08:03:35;2.77;;;2.40;;
35897;SDS011;21997;47.118;15.346;2023-08-12T08:06:01;2.97;;;2.43;;
35897;SDS011;21997;47.118;15.346;2023-08-12T08:08:26;7.70;;;2.83;;
35897;SDS011;21997;47.118;15.346;2023-08-12T08:11:04;2.73;;;2.50;;
35897;SDS011;21997;47.118;15.346;2023-08-12T08:14:00;3.00;;;2.43;;
35897;SDS011;21997;47.118;15.346;2023-08-12T08:16:26;3.10;;;2.47;;
35897;SDS011;21997;47.118;15.346;2023-08-12T08:18:51;3.60;;;2.67;;
35897;SDS011;21997;47.118;15.346;2023-08-12T08:21:17;2.90;;;2.57;;
35897;SDS011;21997;47.118;15.346;2023-08-12T08:23:42;5.37;;;2.37;;
35897;SDS011;21997;47.118;15.346;2023-08-12T08:26:08;2.80;;;2.10;;
35897;SDS011;21997;47.118;15.346;2023-08-12T08:28:34;5.40;;;2.27;;
35897;SDS011;21997;47.118;15.346;2023-08-12T08:30:59;2.90;;;2.50;;
35897;SDS011;21997;47.118;15.346;2023-08-12T08:33:25;2.40;;;2.20;;
35897;SDS011;21997;47.118;15.346;2023-08-12T08:35:51;3.30;;;2.10;;
35897;SDS011;21997;47.118;15.346;2023-08-12T08:38:16;2.63;;;2.20;;
35897;SDS011;21997;47.118;15.346;2023-08-12T08:40:42;3.23;;;2.30;;
35897;SDS011;21997;47.118;15.346;2023-08-12T08:43:07;3.67;;;1.97;;
35897;SDS011;21997;47.118;15.346;2023-08-12T08:45:33;1.80;;;1.50;;
35897;SDS011;21997;47.118;15.346;2023-08-12T08:47:59;2.33;;;1.80;;
35897;SDS011;21997;47.118;15.346;2023-08-12T08:50:26;2.63;;;1.87;;
35897;SDS011;21997;47.118;15.346;2023-08-12T08:52:52;2.47;;;1.80;;
35897;SDS011;21997;47.118;15.346;2023-08-12T08:55:18;5.13;;;2.70;;
35897;SDS011;21997;47.118;15.346;2023-08-12T08:57:43;4.87;;;2.77;;
35897;SDS011;21997;47.118;15.346;2023-08-12T09:00:12;2.70;;;2.30;;
35897;SDS011;21997;47.118;15.346;2023-08-12T09:02:39;2.53;;;1.87;;
35897;SDS011;21997;47.118;15.346;2023-08-12T09:05:05;2.10;;;1.90;;
35897;SDS011;21997;47.118;15.346;2023-08-12T09:07:32;4.40;;;2.50;;
35897;SDS011;21997;47.118;15.346;2023-08-12T09:09:57;4.33;;;2.00;;
35897;SDS011;21997;47.118;15.346;2023-08-12T09:12:23;2.23;;;2.03;;
35897;SDS011;21997;47.118;15.346;2023-08-12T09:14:49;3.57;;;2.10;;
35897;SDS011;21997;47.118;15.346;2023-08-12T09:17:15;3.43;;;1.93;;
35897;SDS011;21997;47.118;15.346;2023-08-12T09:19:41;2.30;;;2.10;;
35897;SDS011;21997;47.118;15.346;2023-08-12T09:22:07;2.43;;;2.23;;
35897;SDS011;21997;47.118;15.346;2023-08-12T09:24:35;2.90;;;2.00;;
35897;SDS011;21997;47.118;15.346;2023-08-12T09:27:01;2.25;;;2.05;;
35897;SDS011;21997;47.118;15.346;2023-08-12T09:29:30;4.03;;;1.98;;
35897;SDS011;21997;47.118;15.346;2023-08-12T09:32:12;18.85;;;6.35;;
35897;SDS011;21997;47.118;15.346;2023-08-12T09:34:45;2.78;;;2.40;;
35897;SDS011;21997;47.118;15.346;2023-08-12T09:37:16;3.92;;;2.08;;
35897;SDS011;21997;47.118;15.346;2023-08-12T09:39:42;3.67;;;2.38;;
35897;SDS011;21997;47.118;15.346;2023-08-12T09:42:08;7.25;;;3.45;;
35897;SDS011;21997;47.118;15.346;2023-08-12T09:44:34;3.88;;;1.92;;
35897;SDS011;21997;47.118;15.346;2023-08-12T09:47:00;3.05;;;1.45;;
35897;SDS011;21997;47.118;15.346;2023-08-12T09:49:26;2.25;;;2.05;;
35897;SDS011;21997;47.118;15.346;2023-08-12T09:51:53;5.03;;;1.98;;
35897;SDS011;21997;47.118;15.346;2023-08-12T09:54:18;3.75;;;1.83;;
35897;SDS011;21997;47.118;15.346;2023-08-12T09:56:44;1.60;;;1.50;;
35897;SDS011;21997;47.118;15.346;2023-08-12T09:59:12;4.43;;;2.75;;
35897;SDS011;21997;47.118;15.346;2023-08-12T10:01:41;5.30;;;3.08;;
35897;SDS011;21997;47.118;15.346;2023-08-12T10:04:09;16.17;;;7.60;;
35897;SDS011;21997;47.118;15.346;2023-08-12T10:06:38;2.42;;;2.13;;
35897;SDS011;21997;47.118;15.346;2023-08-12T10:09:04;3.00;;;1.92;;
35897;SDS011;21997;47.118;15.346;2023-08-12T10:11:33;4.80;;;2.50;;
35897;SDS011;21997;47.118;15.346;2023-08-12T10:13:58;3.20;;;2.20;;
35897;SDS011;21997;47.118;15.346;2023-08-12T10:16:26;2.33;;;1.83;;
35897;SDS011;21997;47.118;15.346;2023-08-12T10:18:54;1.95;;;1.80;;
35897;SDS011;21997;47.118;15.346;2023-08-12T10:21:21;3.90;;;1.85;;
35897;SDS011;21997;47.118;15.346;2023-08-12T10:23:47;2.22;;;2.03;;
35897;SDS011;21997;47.118;15.346;2023-08-12T10:26:15;3.40;;;2.10;;
35897;SDS011;21997;47.118;15.346;2023-08-12T10:28:40;2.63;;;1.90;;
35897;SDS011;21997;47.118;15.346;2023-08-12T10:31:06;2.35;;;2.15;;
35897;SDS011;21997;47.118;15.346;2023-08-12T10:33:35;2.75;;;2.15;;
35897;SDS011;21997;47.118;15.346;2023-08-12T10:36:02;1.85;;;1.75;;
35897;SDS011;21997;47.118;15.346;2023-08-12T10:38:28;2.80;;;1.70;;
35897;SDS011;21997;47.118;15.346;2023-08-12T10:40:56;2.10;;;1.90;;
35897;SDS011;21997;47.118;15.346;2023-08-12T10:43:51;2.28;;;2.08;;
35897;SDS011;21997;47.118;15.346;2023-08-12T10:46:21;2.10;;;1.90;;
35897;SDS011;21997;47.118;15.346;2023-08-12T10:49:02;3.03;;;2.10;;
35897;SDS011;21997;47.118;15.346;2023-08-12T10:54:26;2.30;;;2.05;;
35897;SDS011;21997;47.118;15.346;2023-08-12T10:57:10;3.38;;;2.00;;
35897;SDS011;21997;47.118;15.346;2023-08-12T11:02:16;2.65;;;2.42;;
35897;SDS011;21997;47.118;15.346;2023-08-12T11:07:21;4.97;;;1.92;;
35897;SDS011;21997;47.118;15.346;2023-08-12T11:09:53;3.08;;;2.25;;
35897;SDS011;21997;47.118;15.346;2023-08-12T11:12:31;3.35;;;2.35;;
35897;SDS011;21997;47.118;15.346;2023-08-12T11:14:59;7.10;;;4.00;;
35897;SDS011;21997;47.118;15.346;2023-08-12T11:17:32;5.80;;;2.90;;
35897;SDS011;21997;47.118;15.346;2023-08-12T11:20:03;13.10;;;4.88;;
35897;SDS011;21997;47.118;15.346;2023-08-12T11:22:30;3.55;;;2.53;;
35897;SDS011;21997;47.118;15.346;2023-08-12T11:24:57;25.13;;;7.40;;
35897;SDS011;21997;47.118;15.346;2023-08-12T11:27:23;3.47;;;1.70;;
35897;SDS011;21997;47.118;15.346;2023-08-12T11:29:51;2.30;;;1.83;;
35897;SDS011;21997;47.118;15.346;2023-08-12T11:32:17;2.05;;;1.80;;
35897;SDS011;21997;47.118;15.346;2023-08-12T11:34:43;3.35;;;2.05;;
35897;SDS011;21997;47.118;15.346;2023-08-12T11:37:08;1.77;;;1.67;;
35897;SDS011;21997;47.118;15.346;2023-08-12T11:39:34;3.35;;;1.58;;
35897;SDS011;21997;47.118;15.346;2023-08-12T11:41:59;2.65;;;2.00;;
35897;SDS011;21997;47.118;15.346;2023-08-12T11:44:25;2.10;;;1.90;;
35897;SDS011;21997;47.118;15.346;2023-08-12T11:46:50;2.05;;;1.85;;
35897;SDS011;21997;47.118;15.346;2023-08-12T11:49:16;1.52;;;1.35;;
35897;SDS011;21997;47.118;15.346;2023-08-12T11:51:42;2.70;;;1.80;;
35897;SDS011;21997;47.118;15.346;2023-08-12T11:54:08;1.52;;;1.42;;
35897;SDS011;21997;47.118;15.346;2023-08-12T11:56:33;1.50;;;1.40;;
35897;SDS011;21997;47.118;15.346;2023-08-12T11:58:59;1.60;;;1.50;;
35897;SDS011;21997;47.118;15.346;2023-08-12T12:01:24;2.20;;;1.98;;
35897;SDS011;21997;47.118;15.346;2023-08-12T12:03:53;1.75;;;1.63;;
35897;SDS011;21997;47.118;15.346;2023-08-12T12:06:29;1.58;;;1.48;;
35897;SDS011;21997;47.118;15.346;2023-08-12T12:09:04;2.25;;;1.70;;
35897;SDS011;21997;47.118;15.346;2023-08-12T12:11:34;1.67;;;1.58;;
35897;SDS011;21997;47.118;15.346;2023-08-12T12:14:01;1.65;;;1.42;;
35897;SDS011;21997;47.118;15.346;2023-08-12T12:16:36;1.35;;;1.23;;
35897;SDS011;21997;47.118;15.346;2023-08-12T12:19:02;1.77;;;1.50;;
35897;SDS011;21997;47.118;15.346;2023-08-12T12:21:28;2.45;;;1.50;;
35897;SDS011;21997;47.118;15.346;2023-08-12T12:23:54;2.78;;;1.42;;
35897;SDS011;21997;47.118;15.346;2023-08-12T12:26:19;1.70;;;1.60;;
35897;SDS011;21997;47.118;15.346;2023-08-12T12:28:44;1.48;;;1.38;;
35897;SDS011;21997;47.118;15.346;2023-08-12T12:31:10;2.72;;;1.90;;
35897;SDS011;21997;47.118;15.346;2023-08-12T12:33:35;1.63;;;1.50;;
35897;SDS011;21997;47.118;15.346;2023-08-12T12:36:01;1.67;;;1.58;;
35897;SDS011;21997;47.118;15.346;2023-08-12T12:38:26;2.17;;;1.80;;
35897;SDS011;21997;47.118;15.346;2023-08-12T12:40:52;1.98;;;1.70;;
35897;SDS011;21997;47.118;15.346;2023-08-12T12:43:17;2.03;;;1.75;;
35897;SDS011;21997;47.118;15.346;2023-08-12T12:45:43;2.95;;;1.80;;
35897;SDS011;21997;47.118;15.346;2023-08-12T12:48:08;1.50;;;1.40;;
35897;SDS011;21997;47.118;15.346;2023-08-12T12:50:34;2.67;;;1.80;;
35897;SDS011;21997;47.118;15.346;2023-08-12T12:53:00;1.83;;;1.60;;
35897;SDS011;21997;47.118;15.346;2023-08-12T12:55:25;2.47;;;1.60;;
35897;SDS011;21997;47.118;15.346;2023-08-12T12:57:51;1.80;;;1.70;;
35897;SDS011;21997;47.118;15.346;2023-08-12T13:00:16;1.60;;;1.40;;
35897;SDS011;21997;47.118;15.346;2023-08-12T13:02:41;1.67;;;1.58;;
35897;SDS011;21997;47.118;15.346;2023-08-12T13:05:07;1.52;;;1.42;;
35897;SDS011;21997;47.118;15.346;2023-08-12T13:07:32;1.65;;;1.55;;
35897;SDS011;21997;47.118;15.346;2023-08-12T13:09:57;1.65;;;1.55;;
35897;SDS011;21997;47.118;15.346;2023-08-12T13:12:23;1.80;;;1.52;;
35897;SDS011;21997;47.118;15.346;2023-08-12T13:14:48;3.60;;;1.70;;
35897;SDS011;21997;47.118;15.346;2023-08-12T13:17:14;2.50;;;1.80;;
35897;SDS011;21997;47.118;15.346;2023-08-12T13:19:40;1.55;;;1.45;;
35897;SDS011;21997;47.118;15.346;2023-08-12T13:22:05;2.22;;;1.77;;
35897;SDS011;21997;47.118;15.346;2023-08-12T13:24:30;2.53;;;1.65;;
35897;SDS011;21997;47.118;15.346;2023-08-12T13:26:56;1.55;;;1.42;;
35897;SDS011;21997;47.118;15.346;2023-08-12T13:29:21;3.78;;;1.77;;
35897;SDS011;21997;47.118;15.346;2023-08-12T13:31:47;2.13;;;1.55;;
35897;SDS011;21997;47.118;15.346;2023-08-12T13:34:12;4.32;;;1.70;;
35897;SDS011;21997;47.118;15.346;2023-08-12T13:36:38;1.73;;;1.63;;
35897;SDS011;21997;47.118;15.346;2023-08-12T13:39:03;2.97;;;1.73;;
35897;SDS011;21997;47.118;15.346;2023-08-12T13:41:30;2.17;;;1.80;;
35897;SDS011;21997;47.118;15.346;2023-08-12T13:43:56;2.25;;;1.98;;
35897;SDS011;21997;47.118;15.346;2023-08-12T13:46:24;3.97;;;2.05;;
35897;SDS011;21997;47.118;15.346;2023-08-12T13:48:52;1.77;;;1.50;;
35897;SDS011;21997;47.118;15.346;2023-08-12T13:51:17;2.25;;;1.95;;
35897;SDS011;21997;47.118;15.346;2023-08-12T13:53:43;2.85;;;1.63;;
35897;SDS011;21997;47.118;15.346;2023-08-12T13:56:08;5.13;;;1.95;;
35897;SDS011;21997;47.118;15.346;2023-08-12T13:58:34;1.92;;;1.77;;
35897;SDS011;21997;47.118;15.346;2023-08-12T14:00:59;2.50;;;1.52;;
35897;SDS011;21997;47.118;15.346;2023-08-12T14:03:25;1.83;;;1.73;;
35897;SDS011;21997;47.118;15.346;2023-08-12T14:05:50;1.85;;;1.70;;
35897;SDS011;21997;47.118;15.346;2023-08-12T14:08:15;2.25;;;1.67;;
35897;SDS011;21997;47.118;15.346;2023-08-12T14:10:41;2.08;;;1.88;;
35897;SDS011;21997;47.118;15.346;2023-08-12T14:13:06;2.28;;;1.88;;
35897;SDS011;21997;47.118;15.346;2023-08-12T14:15:32;2.25;;;2.00;;
35897;SDS011;21997;47.118;15.346;2023-08-12T14:17:57;2.75;;;1.40;;
35897;SDS011;21997;47.118;15.346;2023-08-12T14:20:23;1.42;;;1.33;;
35897;SDS011;21997;47.118;15.346;2023-08-12T14:22:48;1.75;;;1.65;;
35897;SDS011;21997;47.118;15.346;2023-08-12T14:25:13;5.03;;;1.60;;
35897;SDS011;21997;47.118;15.346;2023-08-12T14:27:39;2.47;;;1.63;;
35897;SDS011;21997;47.118;15.346;2023-08-12T14:30:05;2.05;;;1.75;;
35897;SDS011;21997;47.118;15.346;2023-08-12T14:32:30;2.95;;;2.00;;
35897;SDS011;21997;47.118;15.346;2023-08-12T14:34:56;1.63;;;1.48;;
35897;SDS011;21997;47.118;15.346;2023-08-12T14:37:21;2.25;;;1.80;;
35897;SDS011;21997;47.118;15.346;2023-08-12T14:39:47;1.73;;;1.58;;
35897;SDS011;21997;47.118;15.346;2023-08-12T14:42:13;1.77;;;1.55;;
35897;SDS011;21997;47.118;15.346;2023-08-12T14:44:38;1.33;;;1.23;;
35897;SDS011;21997;47.118;15.346;2023-08-12T14:47:04;1.60;;;1.40;;
35897;SDS011;21997;47.118;15.346;2023-08-12T14:49:30;1.30;;;1.17;;
35897;SDS011;21997;47.118;15.346;2023-08-12T14:51:55;2.20;;;1.58;;
35897;SDS011;21997;47.118;15.346;2023-08-12T14:54:22;1.65;;;1.55;;
35897;SDS011;21997;47.118;15.346;2023-08-12T14:56:47;2.30;;;1.60;;
35897;SDS011;21997;47.118;15.346;2023-08-12T14:59:13;1.73;;;1.63;;
35897;SDS011;21997;47.118;15.346;2023-08-12T15:01:38;2.30;;;2.00;;
35897;SDS011;21997;47.118;15.346;2023-08-12T15:04:04;3.20;;;1.67;;
35897;SDS011;21997;47.118;15.346;2023-08-12T15:06:30;1.70;;;1.52;;
35897;SDS011;21997;47.118;15.346;2023-08-12T15:08:55;2.20;;;1.60;;
35897;SDS011;21997;47.118;15.346;2023-08-12T15:11:21;1.92;;;1.48;;
35897;SDS011;21997;47.118;15.346;2023-08-12T15:13:47;1.60;;;1.50;;
35897;SDS011;21997;47.118;15.346;2023-08-12T15:16:12;1.85;;;1.30;;
35897;SDS011;21997;47.118;15.346;2023-08-12T15:18:38;2.10;;;1.90;;
35897;SDS011;21997;47.118;15.346;2023-08-12T15:21:04;1.55;;;1.45;;
35897;SDS011;21997;47.118;15.346;2023-08-12T15:23:29;2.83;;;1.38;;
35897;SDS011;21997;47.118;15.346;2023-08-12T15:25:55;2.53;;;1.30;;
35897;SDS011;21997;47.118;15.346;2023-08-12T15:28:21;3.45;;;1.73;;
35897;SDS011;21997;47.118;15.346;2023-08-12T15:30:49;2.40;;;1.80;;
35897;SDS011;21997;47.118;15.346;2023-08-12T15:33:15;1.60;;;1.50;;
35897;SDS011;21997;47.118;15.346;2023-08-12T15:35:41;2.25;;;1.33;;
35897;SDS011;21997;47.118;15.346;2023-08-12T15:38:07;3.28;;;1.60;;
35897;SDS011;21997;47.118;15.346;2023-08-12T15:40:33;1.88;;;1.60;;
35897;SDS011;21997;47.118;15.346;2023-08-12T15:42:58;2.47;;;1.80;;
35897;SDS011;21997;47.118;15.346;2023-08-12T15:45:23;1.50;;;1.40;;
35897;SDS011;21997;47.118;15.346;2023-08-12T15:47:49;2.00;;;1.80;;
35897;SDS011;21997;47.118;15.346;2023-08-12T15:50:14;1.60;;;1.50;;
35897;SDS011;21997;47.118;15.346;2023-08-12T15:52:40;2.80;;;1.65;;
35897;SDS011;21997;47.118;15.346;2023-08-12T15:55:05;2.97;;;1.45;;
35897;SDS011;21997;47.118;15.346;2023-08-12T15:57:32;3.15;;;1.92;;
35897;SDS011;21997;47.118;15.346;2023-08-12T15:59:57;1.75;;;1.65;;
35897;SDS011;21997;47.118;15.346;2023-08-12T16:02:23;1.45;;;1.35;;
35897;SDS011;21997;47.118;15.346;2023-08-12T16:04:48;3.92;;;1.75;;
35897;SDS011;21997;47.118;15.346;2023-08-12T16:07:14;2.65;;;1.52;;
35897;SDS011;21997;47.118;15.346;2023-08-12T16:09:39;2.88;;;1.85;;
35897;SDS011;21997;47.118;15.346;2023-08-12T16:12:04;2.40;;;1.85;;
35897;SDS011;21997;47.118;15.346;2023-08-12T16:14:30;1.60;;;1.30;;
35897;SDS011;21997;47.118;15.346;2023-08-12T16:16:55;2.63;;;1.88;;
35897;SDS011;21997;47.118;15.346;2023-08-12T16:19:21;2.13;;;1.75;;
35897;SDS011;21997;47.118;15.346;2023-08-12T16:21:46;2.80;;;1.92;;
35897;SDS011;21997;47.118;15.346;2023-08-12T16:24:11;2.92;;;1.92;;
35897;SDS011;21997;47.118;15.346;2023-08-12T16:26:37;1.70;;;1.60;;
35897;SDS011;21997;47.118;15.346;2023-08-12T16:29:02;2.97;;;2.03;;
35897;SDS011;21997;47.118;15.346;2023-08-12T16:31:29;2.88;;;1.50;;
35897;SDS011;21997;47.118;15.346;2023-08-12T16:33:55;2.13;;;1.60;;
35897;SDS011;21997;47.118;15.346;2023-08-12T16:36:20;2.53;;;1.80;;
35897;SDS011;21997;47.118;15.346;2023-08-12T16:38:45;2.13;;;1.93;;
35897;SDS011;21997;47.118;15.346;2023-08-12T16:41:11;2.33;;;2.13;;
35897;SDS011;21997;47.118;15.346;2023-08-12T16:43:37;2.10;;;1.60;;
35897;SDS011;21997;47.118;15.346;2023-08-12T16:46:03;2.05;;;1.80;;
35897;SDS011;21997;47.118;15.346;2023-08-12T16:48:28;2.17;;;1.97;;
35897;SDS011;21997;47.118;15.346;2023-08-12T16:50:53;2.35;;;1.70;;
35897;SDS011;21997;47.118;15.346;2023-08-12T16:53:19;3.83;;;1.77;;
35897;SDS011;21997;47.118;15.346;2023-08-12T16:55:44;2.50;;;2.00;;
35897;SDS011;21997;47.118;15.346;2023-08-12T16:58:09;2.63;;;2.43;;
35897;SDS011;21997;47.118;15.346;2023-08-12T17:00:35;2.23;;;1.83;;
35897;SDS011;21997;47.118;15.346;2023-08-12T17:03:00;4.03;;;1.90;;
35897;SDS011;21997;47.118;15.346;2023-08-12T17:05:26;4.80;;;2.10;;
35897;SDS011;21997;47.118;15.346;2023-08-12T17:07:51;2.13;;;1.83;;
35897;SDS011;21997;47.118;15.346;2023-08-12T17:10:17;2.13;;;1.87;;
35897;SDS011;21997;47.118;15.346;2023-08-12T17:12:42;2.23;;;2.00;;
35897;SDS011;21997;47.118;15.346;2023-08-12T17:15:07;2.43;;;1.97;;
35897;SDS011;21997;47.118;15.346;2023-08-12T17:17:33;3.90;;;1.70;;
35897;SDS011;21997;47.118;15.346;2023-08-12T17:19:59;2.53;;;1.77;;
35897;SDS011;21997;47.118;15.346;2023-08-12T17:22:24;2.23;;;1.77;;
35897;SDS011;21997;47.118;15.346;2023-08-12T17:24:50;2.10;;;1.90;;
35897;SDS011;21997;47.118;15.346;2023-08-12T17:27:15;2.17;;;1.70;;
35897;SDS011;21997;47.118;15.346;2023-08-12T17:29:40;2.13;;;1.73;;
35897;SDS011;21997;47.118;15.346;2023-08-12T17:32:06;2.77;;;1.97;;
35897;SDS011;21997;47.118;15.346;2023-08-12T17:34:31;1.77;;;1.67;;
35897;SDS011;21997;47.118;15.346;2023-08-12T17:36:57;1.63;;;1.50;;
35897;SDS011;21997;47.118;15.346;2023-08-12T17:39:22;1.73;;;1.63;;
35897;SDS011;21997;47.118;15.346;2023-08-12T17:41:48;4.73;;;1.90;;
35897;SDS011;21997;47.118;15.346;2023-08-12T17:44:13;2.53;;;1.80;;
35897;SDS011;21997;47.118;15.346;2023-08-12T17:46:39;2.10;;;1.90;;
35897;SDS011;21997;47.118;15.346;2023-08-12T17:49:05;1.97;;;1.77;;
35897;SDS011;21997;47.118;15.346;2023-08-12T17:51:30;4.03;;;2.33;;
35897;SDS011;21997;47.118;15.346;2023-08-12T17:53:55;2.17;;;1.97;;
35897;SDS011;21997;47.118;15.346;2023-08-12T17:56:21;3.23;;;2.13;;
35897;SDS011;21997;47.118;15.346;2023-08-12T17:58:46;2.73;;;2.07;;
35897;SDS011;21997;47.118;15.346;2023-08-12T18:01:12;5.60;;;1.90;;
35897;SDS011;21997;47.118;15.346;2023-08-12T18:03:38;3.90;;;2.30;;
35897;SDS011;21997;47.118;15.346;2023-08-12T18:06:03;2.97;;;2.23;;
35897;SDS011;21997;47.118;15.346;2023-08-12T18:08:30;2.67;;;2.30;;
35897;SDS011;21997;47.118;15.346;2023-08-12T18:10:59;2.30;;;2.10;;
35897;SDS011;21997;47.118;15.346;2023-08-12T18:13:25;3.57;;;2.10;;
35897;SDS011;21997;47.118;15.346;2023-08-12T18:15:51;2.53;;;1.70;;
35897;SDS011;21997;47.118;15.346;2023-08-12T18:18:16;2.40;;;1.70;;
35897;SDS011;21997;47.118;15.346;2023-08-12T18:20:41;2.87;;;2.10;;
35897;SDS011;21997;47.118;15.346;2023-08-12T18:23:07;4.90;;;2.60;;
35897;SDS011;21997;47.118;15.346;2023-08-12T18:25:32;3.47;;;2.10;;
35897;SDS011;21997;47.118;15.346;2023-08-12T18:27:58;3.83;;;2.23;;
35897;SDS011;21997;47.118;15.346;2023-08-12T18:30:23;1.87;;;1.67;;
35897;SDS011;21997;47.118;15.346;2023-08-12T18:32:49;2.57;;;2.07;;
35897;SDS011;21997;47.118;15.346;2023-08-12T18:35:15;3.30;;;2.27;;
35897;SDS011;21997;47.118;15.346;2023-08-12T18:37:41;2.20;;;2.00;;
35897;SDS011;21997;47.118;15.346;2023-08-12T18:40:06;2.20;;;1.93;;
35897;SDS011;21997;47.118;15.346;2023-08-12T18:42:35;3.63;;;2.57;;
35897;SDS011;21997;47.118;15.346;2023-08-12T18:45:05;2.40;;;2.20;;
35897;SDS011;21997;47.118;15.346;2023-08-12T18:47:36;4.80;;;1.87;;
35897;SDS011;21997;47.118;15.346;2023-08-12T18:50:04;5.23;;;2.10;;
35897;SDS011;21997;47.118;15.346;2023-08-12T18:52:33;2.50;;;2.30;;
35897;SDS011;21997;47.118;15.346;2023-08-12T18:54:59;2.40;;;2.20;;
35897;SDS011;21997;47.118;15.346;2023-08-12T18:57:35;2.60;;;2.10;;
35897;SDS011;21997;47.118;15.346;2023-08-12T19:00:00;3.03;;;2.00;;
35897;SDS011;21997;47.118;15.346;2023-08-12T19:02:26;2.40;;;2.20;;
35897;SDS011;21997;47.118;15.346;2023-08-12T19:04:51;3.27;;;2.40;;
35897;SDS011;21997;47.118;15.346;2023-08-12T19:10:08;8.03;;;4.63;;
35897;SDS011;21997;47.118;15.346;2023-08-12T19:12:38;6.70;;;5.13;;
35897;SDS011;21997;47.118;15.346;2023-08-12T19:15:03;4.20;;;3.47;;
35897;SDS011;21997;47.118;15.346;2023-08-12T19:17:30;4.30;;;3.03;;
35897;SDS011;21997;47.118;15.346;2023-08-12T19:19:55;3.10;;;2.80;;
35897;SDS011;21997;47.118;15.346;2023-08-12T19:22:20;4.27;;;3.40;;
35897;SDS011;21997;47.118;15.346;2023-08-12T19:28:05;3.43;;;2.70;;
35897;SDS011;21997;47.118;15.346;2023-08-12T19:30:36;3.00;;;2.80;;
35897;SDS011;21997;47.118;15.346;2023-08-12T19:33:02;3.37;;;2.60;;
35897;SDS011;21997;47.118;15.346;2023-08-12T19:35:28;3.20;;;2.70;;
35897;SDS011;21997;47.118;15.346;2023-08-12T19:37:54;5.07;;;3.00;;
35897;SDS011;21997;47.118;15.346;2023-08-12T19:40:24;4.57;;;3.50;;
35897;SDS011;21997;47.118;15.346;2023-08-12T19:42:50;3.77;;;3.20;;
35897;SDS011;21997;47.118;15.346;2023-08-12T19:45:15;4.93;;;3.10;;
35897;SDS011;21997;47.118;15.346;2023-08-12T19:47:42;3.80;;;3.50;;
35897;SDS011;21997;47.118;15.346;2023-08-12T19:50:09;4.10;;;3.53;;
35897;SDS011;21997;47.118;15.346;2023-08-12T19:56:01;4.23;;;3.37;;
35897;SDS011;21997;47.118;15.346;2023-08-12T20:02:06;5.10;;;4.47;;
35897;SDS011;21997;47.118;15.346;2023-08-12T22:15:00;6.73;;;5.13;;
35897;SDS011;21997;47.118;15.346;2023-08-12T22:28:30;5.80;;;5.13;;
35897;SDS011;21997;47.118;15.346;2023-08-12T22:31:45;5.57;;;4.77;;
35897;SDS011;21997;47.118;15.346;2023-08-12T22:34:41;5.00;;;4.50;;
35897;SDS011;21997;47.118;15.346;2023-08-12T22:37:34;5.27;;;4.77;;
35897;SDS011;21997;47.118;15.346;2023-08-12T22:40:42;8.47;;;4.53;;
35897;SDS011;21997;47.118;15.346;2023-08-12T22:43:57;4.67;;;4.27;;
35897;SDS011;21997;47.118;15.346;2023-08-12T22:46:54;4.73;;;4.27;;
35897;SDS011;21997;47.118;15.346;2023-08-12T22:49:31;5.80;;;4.40;;
35897;SDS011;21997;47.118;15.346;2023-08-12T22:52:14;4.90;;;4.40;;
35897;SDS011;21997;47.118;15.346;2023-08-12T23:01:28;5.07;;;4.67;;
35897;SDS011;21997;47.118;15.346;2023-08-12T23:04:26;4.80;;;4.23;;
35897;SDS011;21997;47.118;15.346;2023-08-12T23:07:09;4.83;;;4.43;;
35897;SDS011;21997;47.118;15.346;2023-08-12T23:13:01;5.73;;;5.00;;
35897;SDS011;21997;47.118;15.346;2023-08-12T23:19:13;5.30;;;4.80;;
35897;SDS011;21997;47.118;15.346;2023-08-12T23:21:50;6.50;;;5.40;;
35897;SDS011;21997;47.118;15.346;2023-08-12T23:24:39;6.17;;;4.20;;
35897;SDS011;21997;47.118;15.346;2023-08-12T23:27:25;5.80;;;4.60;;
35897;SDS011;21997;47.118;15.346;2023-08-12T23:30:21;4.63;;;4.20;;
35897;SDS011;21997;47.118;15.346;2023-08-12T23:36:32;5.20;;;4.70;;
35897;SDS011;21997;47.118;15.346;2023-08-12T23:39:17;5.50;;;4.57;;
35897;SDS011;21997;47.118;15.346;2023-08-12T23:42:13;4.73;;;4.33;;
35897;SDS011;21997;47.118;15.346;2023-08-12T23:45:18;5.43;;;4.10;;
35897;SDS011;21997;47.118;15.346;2023-08-12T23:47:49;5.00;;;4.10;;
35897;SDS011;21997;47.118;15.346;2023-08-12T23:50:20;8.07;;;3.87;;
35897;SDS011;21997;47.118;15.346;2023-08-12T23:53:21;4.90;;;4.40;;
35897;SDS011;21997;47.118;15.346;2023-08-12T23:56:21;3.80;;;3.43;;
